Time;durP1;ratioP1;P1;durP2;ratioP2;P2;SDS_P1;SDS_P2;PMS_P1;PMS_P2;Temp;Humidity;BMP_temperature;BMP_pressure;BME280_temperature;BME280_humidity;BME280_pressure;Samples;Min_cycle;Max_cycle;Signal;HPM_P1;HPM_P2
2022/11/04 00:02:14;;;;;;;12.20;7.30;;;;;;;8.44;76.37;99846.08;125092;1297;98010;-79
2022/11/04 00:05:19;;;;;;;14.80;8.00;;;;;;;8.42;76.46;99831.70;125170;1303;98676;-76
2022/11/04 00:08:25;;;;;;;16.10;9.60;;;;;;;8.41;76.41;99830.94;125258;1303;99217;-78
2022/11/04 00:17:18;;;;;;;16.20;6.60;;;;;;;8.32;76.57;99817.94;124878;1290;98141;-78
2022/11/04 00:18:27;;;;;;;12.40;7.30;;;;;;;8.34;76.61;99828.72;125097;1290;98097;-78
2022/11/04 00:35:07;;;;;;;10.10;6.20;;;;;;;8.42;76.50;99813.60;125138;1295;98760;-77
2022/11/04 00:38:12;;;;;;;12.40;7.60;;;;;;;8.39;76.40;99807.52;125122;1295;98781;-76
2022/11/04 00:41:27;;;;;;;14.10;8.30;;;;;;;8.35;76.44;99799.82;125192;1295;99058;-78
2022/11/04 00:44:32;;;;;;;12.90;7.70;;;;;;;8.27;76.57;99795.20;125199;1296;98049;-78
2022/11/04 00:47:38;;;;;;;17.30;6.40;;;;;;;8.21;76.62;99792.58;125136;1297;99146;-77
2022/11/04 00:50:43;;;;;;;13.30;7.30;;;;;;;8.15;76.68;99788.57;125155;1303;98039;-77
2022/11/04 00:53:50;;;;;;;15.60;8.10;;;;;;;8.14;76.65;99781.25;125198;1296;98045;-78
2022/11/04 00:56:55;;;;;;;14.20;7.90;;;;;;;8.15;76.84;99775.09;125194;1293;98842;-78
2022/11/04 01:00:01;;;;;;;16.20;10.00;;;;;;;8.16;76.69;99767.23;125212;1303;98030;-79
2022/11/04 01:03:06;;;;;;;14.10;7.90;;;;;;;8.15;76.82;99763.59;125155;1288;98043;-79
2022/11/04 01:06:12;;;;;;;14.70;8.60;;;;;;;8.14;76.82;99762.12;125138;1290;99166;-78
2022/11/04 01:09:17;;;;;;;14.60;8.50;;;;;;;8.09;76.84;99754.12;125040;1303;98033;-78
2022/11/04 01:12:23;;;;;;;13.70;8.30;;;;;;;8.06;76.98;99747.29;125124;1304;99167;-78
2022/11/04 01:15:28;;;;;;;14.40;8.30;;;;;;;8.02;76.98;99742.13;125169;1297;99173;-77
2022/11/04 01:18:34;;;;;;;13.30;7.60;;;;;;;8.01;77.20;99743.55;125043;1316;98078;-78
2022/11/04 01:21:40;;;;;;;12.80;6.50;;;;;;;8.01;77.15;99738.90;125107;1296;99084;-78
2022/11/04 01:24:45;;;;;;;12.80;8.10;;;;;;;8.05;77.27;99732.35;125184;1290;98153;-79
2022/11/04 01:27:51;;;;;;;16.10;8.60;;;;;;;8.10;77.39;99731.35;125153;1297;98074;-78
2022/11/04 01:30:56;;;;;;;15.40;8.40;;;;;;;8.14;77.15;99730.80;125141;1296;99169;-79
2022/11/04 01:34:01;;;;;;;15.60;8.20;;;;;;;8.18;77.17;99736.58;125097;1297;98770;-77
2022/11/04 01:37:07;;;;;;;14.10;8.60;;;;;;;8.20;77.21;99733.35;125054;1295;98054;-77
2022/11/04 01:40:13;;;;;;;17.50;9.00;;;;;;;8.21;77.15;99733.73;125165;1296;99167;-77
2022/11/04 01:43:22;;;;;;;13.20;8.00;;;;;;;8.20;77.11;99730.14;125162;1290;98038;-79
2022/11/04 01:46:35;;;;;;;13.20;8.40;;;;;;;8.18;77.19;99713.50;125263;1297;98772;-78
2022/11/04 01:49:41;;;;;;;13.00;7.30;;;;;;;8.15;77.30;99702.70;125117;1305;99167;-79
2022/11/04 01:52:52;;;;;;;14.00;7.80;;;;;;;8.13;77.31;99695.58;125156;1297;98055;-78
2022/11/04 01:55:59;;;;;;;14.20;8.00;;;;;;;8.15;77.34;99694.51;125199;1303;98122;-77
2022/11/04 01:59:11;;;;;;;13.00;7.30;;;;;;;8.21;77.32;99690.23;125158;1297;98137;-78
2022/11/04 02:02:17;;;;;;;13.90;8.30;;;;;;;8.25;77.18;99691.08;125068;1297;99141;-78
2022/11/04 02:05:23;;;;;;;14.70;8.50;;;;;;;8.29;77.17;99689.95;125166;1293;99055;-78
2022/11/04 02:08:30;;;;;;;14.60;8.50;;;;;;;8.31;77.16;99681.05;125133;1297;98007;-77
2022/11/04 02:14:59;;;;;;;17.30;8.80;;;;;;;8.25;77.14;99669.75;125216;1302;99054;-77
2022/11/04 02:18:20;;;;;;;13.40;8.30;;;;;;;8.22;77.20;99664.55;125043;1303;98377;-77
2022/11/04 02:21:42;;;;;;;12.80;7.80;;;;;;;8.19;77.28;99657.80;125325;1289;98121;-77
2022/11/04 02:25:12;;;;;;;11.40;7.00;;;;;;;8.18;77.41;99652.40;125069;1295;98036;-78
2022/11/04 02:28:45;;;;;;;14.30;8.40;;;;;;;8.20;77.36;99655.55;125047;1303;98554;-79
2022/11/04 02:31:57;;;;;;;13.90;8.50;;;;;;;8.26;77.43;99650.52;125109;1303;99536;-76
2022/11/04 02:35:06;;;;;;;14.30;8.20;;;;;;;8.31;77.27;99648.44;125124;1303;99164;-76
2022/11/04 02:38:19;;;;;;;15.60;7.90;;;;;;;8.33;77.36;99649.14;125184;1303;98039;-75
2022/11/04 02:41:38;;;;;;;15.00;8.70;;;;;;;8.33;77.40;99645.45;125219;1296;98150;-76
2022/11/04 02:44:50;;;;;;;15.70;8.70;;;;;;;8.31;77.37;99646.70;125013;1297;147927;-77
2022/11/04 02:48:02;;;;;;;13.80;8.50;;;;;;;8.30;77.39;99641.24;125143;1301;98008;-78
2022/11/04 02:51:15;;;;;;;13.00;8.50;;;;;;;8.29;77.55;99640.70;125218;1295;98038;-78
2022/11/04 02:54:26;;;;;;;14.00;7.60;;;;;;;8.25;77.43;99639.61;125099;1297;99162;-78
2022/11/04 02:57:37;;;;;;;13.60;7.40;;;;;;;8.23;77.51;99639.36;125092;1296;98689;-77
2022/11/04 03:00:45;;;;;;;13.70;8.40;;;;;;;8.25;77.58;99641.64;125094;1296;98033;-76
2022/11/04 03:04:04;;;;;;;16.00;8.60;;;;;;;8.30;77.55;99636.70;125128;1296;99061;-79
2022/11/04 03:07:12;;;;;;;13.80;8.10;;;;;;;8.35;77.58;99632.31;125320;1297;98778;-79
2022/11/04 03:10:23;;;;;;;13.50;8.80;;;;;;;8.38;77.58;99628.25;125269;1298;99189;-76
2022/11/04 03:13:36;;;;;;;16.10;8.10;;;;;;;8.39;77.51;99626.23;125182;1295;99196;-77
2022/11/04 03:16:46;;;;;;;13.20;8.60;;;;;;;8.37;77.44;99629.41;125133;1295;98808;-78
2022/11/04 03:19:57;;;;;;;16.50;9.30;;;;;;;8.35;77.56;99622.22;125114;1297;98769;-76
2022/11/04 03:23:02;;;;;;;14.40;8.70;;;;;;;8.33;77.71;99624.11;125117;1304;98036;-76
2022/11/04 03:26:17;;;;;;;14.70;7.30;;;;;;;8.29;77.59;99619.24;125172;1303;99163;-76
2022/11/04 03:29:30;;;;;;;14.10;7.40;;;;;;;8.28;77.82;99621.36;125099;1290;98111;-76
2022/11/04 03:32:43;;;;;;;15.00;8.50;;;;;;;8.29;77.84;99623.54;125180;1296;98031;-76
2022/11/04 03:35:49;;;;;;;14.60;8.60;;;;;;;8.34;77.79;99618.39;125146;1295;99166;-76
2022/11/04 03:38:55;;;;;;;15.60;8.30;;;;;;;8.38;77.70;99615.86;125279;1297;99125;-79
2022/11/04 03:42:18;;;;;;;15.80;8.50;;;;;;;8.41;77.74;99611.31;125402;1302;99192;-76
2022/11/04 03:45:25;;;;;;;13.80;8.30;;;;;;;8.42;77.75;99602.34;125110;1296;98655;-76
2022/11/04 03:48:31;;;;;;;13.80;8.70;;;;;;;8.42;77.76;99602.34;125242;1288;99170;-75
2022/11/04 03:51:36;;;;;;;14.30;8.90;;;;;;;8.41;77.75;99593.59;125181;1303;98214;-76
2022/11/04 03:54:42;;;;;;;17.00;9.40;;;;;;;8.38;77.69;99589.13;125157;1296;98107;-79
2022/11/04 03:57:54;;;;;;;13.40;7.70;;;;;;;8.33;77.84;99588.41;125317;1313;99166;-78
2022/11/04 04:01:05;;;;;;;14.80;7.60;;;;;;;8.30;77.84;99583.70;125990;1295;98689;-79
2022/11/04 04:04:20;;;;;;;13.60;7.80;;;;;;;8.31;78.11;99572.64;125216;1302;99109;-78
2022/11/04 04:07:33;;;;;;;13.70;8.20;;;;;;;8.34;78.10;99577.77;125192;1296;99169;-78
2022/11/04 04:10:45;;;;;;;19.40;9.10;;;;;;;8.41;78.00;99572.18;125177;1303;98679;-78
2022/11/04 04:13:57;;;;;;;13.80;9.00;;;;;;;8.43;77.97;99576.89;125129;1293;98794;-78
2022/11/04 04:17:07;;;;;;;13.90;8.10;;;;;;;8.43;77.99;99575.52;125129;1303;98578;-78
2022/11/04 04:20:16;;;;;;;15.30;8.70;;;;;;;8.43;78.02;99572.43;125108;1303;98788;-79
2022/11/04 04:30:17;;;;;;;16.20;7.90;;;;;;;8.34;78.05;99568.98;125133;1289;99130;-79
2022/11/04 04:33:23;;;;;;;13.50;7.50;;;;;;;8.32;78.14;99565.11;125265;1301;101577;-78
2022/11/04 04:36:30;;;;;;;15.20;9.20;;;;;;;8.32;78.12;99564.51;125141;1302;98773;-77
2022/11/04 04:46:23;;;;;;;13.70;8.90;;;;;;;8.46;77.95;99560.18;125162;1296;98007;-79
2022/11/04 04:49:33;;;;;;;11.70;8.00;;;;;;;8.46;77.96;99560.29;125173;1303;98016;-79
2022/11/04 04:52:41;;;;;;;15.90;8.90;;;;;;;8.44;77.95;99556.11;125231;1297;98015;-78
2022/11/04 04:55:47;;;;;;;14.50;8.80;;;;;;;8.42;77.89;99556.42;125192;1296;99166;-79
2022/11/04 04:58:52;;;;;;;13.90;8.80;;;;;;;8.41;78.01;99549.98;125195;1303;98009;-78
2022/11/04 05:01:58;;;;;;;13.00;7.40;;;;;;;8.37;77.97;99544.84;125183;1296;98036;-79
2022/11/04 05:05:03;;;;;;;10.80;6.90;;;;;;;8.36;78.02;99540.58;125083;1296;99219;-78
2022/11/04 05:08:09;;;;;;;14.10;7.50;;;;;;;8.40;78.06;99537.33;125098;1304;98015;-78
2022/11/04 05:11:15;;;;;;;13.40;7.70;;;;;;;8.43;77.96;99535.05;125163;1303;98778;-79
2022/11/04 05:14:20;;;;;;;15.30;8.70;;;;;;;8.48;78.06;99538.13;125294;1303;98030;-78
2022/11/04 05:17:26;;;;;;;15.80;8.70;;;;;;;8.51;77.87;99528.98;125247;1303;99179;-79
2022/11/04 05:20:33;;;;;;;14.80;8.60;;;;;;;8.51;77.84;99528.27;125122;1290;97991;-78
2022/11/04 05:23:38;;;;;;;13.40;8.30;;;;;;;8.51;77.85;99533.59;125178;1303;98021;-77
2022/11/04 05:26:44;;;;;;;13.10;8.00;;;;;;;8.50;77.86;99524.97;125191;1296;99194;-79
2022/11/04 05:29:49;;;;;;;13.70;8.40;;;;;;;8.48;77.77;99525.23;125144;1293;99212;-77
2022/11/04 05:32:55;;;;;;;11.30;7.60;;;;;;;8.42;77.82;99537.33;125129;1297;98013;-79
2022/11/04 05:36:09;;;;;;;13.50;7.60;;;;;;;8.40;77.98;99539.97;125128;1301;99194;-77
2022/11/04 05:39:15;;;;;;;12.20;7.00;;;;;;;8.40;77.91;99537.16;125144;1303;98043;-78
2022/11/04 05:42:21;;;;;;;12.30;7.90;;;;;;;8.43;78.02;99534.70;125206;1296;98325;-78
2022/11/04 05:45:26;;;;;;;15.80;8.80;;;;;;;8.48;77.99;99526.29;125091;1303;98046;-77
2022/11/04 05:48:32;;;;;;;12.60;8.10;;;;;;;8.49;77.97;99529.17;125118;1302;98002;-78
2022/11/04 05:51:37;;;;;;;16.00;8.70;;;;;;;8.48;78.00;99528.58;125142;1297;99125;-79
2022/11/04 05:54:42;;;;;;;14.50;8.80;;;;;;;8.49;78.01;99538.64;125268;1296;98135;-79
2022/11/04 05:57:48;;;;;;;17.10;11.20;;;;;;;8.46;77.93;99545.04;125278;1296;98135;-76
2022/11/04 06:00:53;;;;;;;16.90;9.30;;;;;;;8.43;77.93;99538.13;125165;1297;99221;-78
2022/11/04 06:04:00;;;;;;;13.00;7.80;;;;;;;8.40;78.04;99542.83;125125;1302;99185;-78
2022/11/04 06:07:06;;;;;;;15.00;7.40;;;;;;;8.38;78.20;99547.27;125200;1296;98129;-79
2022/11/04 06:10:12;;;;;;;15.30;8.20;;;;;;;8.38;78.17;99541.20;125245;1300;99178;-78
2022/11/04 06:13:17;;;;;;;15.40;8.80;;;;;;;8.41;78.16;99551.95;125281;1296;98125;-78
2022/11/04 06:16:23;;;;;;;12.90;8.60;;;;;;;8.43;78.31;99550.66;125198;1313;98008;-79
2022/11/04 06:19:29;;;;;;;13.20;8.60;;;;;;;8.44;78.27;99544.09;125366;1297;98034;-78
2022/11/04 06:22:35;;;;;;;14.50;8.60;;;;;;;8.43;78.50;99546.25;125166;1289;98039;-78
2022/11/04 06:25:40;;;;;;;12.80;8.40;;;;;;;8.44;78.65;99549.34;125195;1292;98023;-77
2022/11/04 06:28:46;;;;;;;15.40;10.00;;;;;;;8.44;78.56;99553.91;125254;1296;98002;-79
2022/11/04 06:31:51;;;;;;;17.00;8.40;;;;;;;8.42;78.61;99559.98;125186;1297;99199;-74
2022/11/04 06:34:57;;;;;;;14.70;8.60;;;;;;;8.40;78.71;99559.87;125267;1296;98307;-74
2022/11/04 06:38:02;;;;;;;19.40;13.10;;;;;;;8.41;78.83;99555.32;125307;1295;98810;-74
2022/11/04 06:41:11;;;;;;;17.80;10.70;;;;;;;8.45;78.88;99550.28;125324;1297;98069;-74
2022/11/04 06:44:16;;;;;;;15.20;9.30;;;;;;;8.52;78.77;99546.05;125262;1297;98014;-74
2022/11/04 06:47:22;;;;;;;16.40;11.10;;;;;;;8.56;78.77;99538.77;125416;1295;98033;-74
2022/11/04 06:50:27;;;;;;;17.80;11.70;;;;;;;8.60;78.90;99535.67;125298;1302;98144;-74
2022/11/04 06:53:33;;;;;;;15.70;10.80;;;;;;;8.61;78.89;99530.42;125169;1297;98021;-72
2022/11/04 06:56:39;;;;;;;15.00;10.40;;;;;;;8.61;78.86;99530.23;125165;1296;99213;-72
2022/11/04 06:59:44;;;;;;;23.80;14.20;;;;;;;8.59;79.12;99530.77;125270;1297;99062;-73
2022/11/04 07:02:50;;;;;;;27.90;16.30;;;;;;;8.57;79.25;99525.48;125216;1297;98094;-74
2022/11/04 07:05:55;;;;;;;78.00;50.30;;;;;;;8.57;79.48;99515.04;125305;1289;99058;-73
2022/11/04 07:09:02;;;;;;;62.20;41.50;;;;;;;8.58;79.56;99505.21;125273;1303;99054;-74
2022/11/04 07:12:08;;;;;;;95.20;41.70;;;;;;;8.58;79.76;99507.11;125328;1296;99065;-74
2022/11/04 07:15:13;;;;;;;41.80;19.60;;;;;;;8.58;79.79;99514.05;125178;1303;99380;-71
2022/11/04 07:18:19;;;;;;;23.60;12.10;;;;;;;8.58;79.87;99524.67;125420;1297;99262;-72
2022/11/04 07:21:25;;;;;;;19.30;11.90;;;;;;;8.62;79.72;99528.94;125359;1290;99159;-74
2022/11/04 07:24:30;;;;;;;17.80;9.10;;;;;;;8.64;79.99;99529.73;125212;1297;98128;-74
2022/11/04 07:27:36;;;;;;;37.00;16.90;;;;;;;8.70;79.98;99522.79;125112;1302;99088;-73
2022/11/04 07:30:41;;;;;;;34.40;17.90;;;;;;;8.78;79.99;99512.33;125214;1297;98492;-74
2022/11/04 07:33:48;;;;;;;22.70;11.50;;;;;;;8.86;79.95;99510.95;125402;1303;98409;-73
2022/11/04 07:36:54;;;;;;;23.20;13.00;;;;;;;8.95;79.93;99501.90;125215;1297;98024;-74
2022/11/04 07:39:59;;;;;;;18.80;11.30;;;;;;;9.05;79.95;99501.35;125167;1303;98781;-76
2022/11/04 07:43:05;;;;;;;17.40;11.10;;;;;;;9.14;80.10;99498.34;125133;1309;98106;-74
2022/11/04 07:46:15;;;;;;;14.90;10.30;;;;;;;9.19;79.85;99499.35;125117;1298;99183;-74
2022/11/04 07:49:21;;;;;;;15.00;10.30;;;;;;;9.23;79.93;99494.34;125076;1305;99100;-74
2022/11/04 07:52:26;;;;;;;13.80;9.30;;;;;;;9.23;79.80;99490.17;125113;1302;99335;-74
2022/11/04 07:55:32;;;;;;;14.70;9.10;;;;;;;9.26;79.88;99480.90;125100;1290;98091;-74
2022/11/04 07:58:37;;;;;;;15.60;9.20;;;;;;;9.35;79.90;99485.27;125084;1297;98429;-73
2022/11/04 08:01:43;;;;;;;15.40;9.50;;;;;;;9.45;80.04;99491.98;125104;1301;99172;-73
2022/11/04 08:04:49;;;;;;;21.20;10.50;;;;;;;9.56;79.69;99484.73;125156;1303;98034;-73
2022/11/04 08:07:56;;;;;;;15.80;10.00;;;;;;;9.68;79.56;99478.54;125140;1296;98186;-73
2022/11/04 08:11:04;;;;;;;15.10;9.10;;;;;;;9.76;79.62;99471.41;125088;1302;98063;-73
2022/11/04 08:14:10;;;;;;;15.60;10.10;;;;;;;9.79;79.73;99472.88;125221;1297;99176;-75
2022/11/04 08:17:15;;;;;;;13.50;9.30;;;;;;;9.84;79.49;99475.75;125092;1297;99252;-72
2022/11/04 08:20:21;;;;;;;11.80;8.30;;;;;;;9.86;79.59;99475.50;124962;1305;98657;-73
2022/11/04 08:23:26;;;;;;;15.00;8.30;;;;;;;9.90;79.59;99471.46;124887;1306;98118;-72
2022/11/04 08:26:32;;;;;;;16.30;8.90;;;;;;;9.96;79.58;99466.94;124898;1313;98179;-72
2022/11/04 08:29:37;;;;;;;14.10;9.00;;;;;;;10.07;79.21;99461.29;124968;1319;99104;-72
2022/11/04 08:32:43;;;;;;;13.80;8.40;;;;;;;10.22;79.36;99453.46;124925;1306;98491;-73
2022/11/04 08:35:49;;;;;;;16.90;10.00;;;;;;;10.34;79.18;99452.80;124858;1306;98021;-73
2022/11/04 08:38:56;;;;;;;14.90;9.50;;;;;;;10.44;79.11;99448.13;124986;1312;98113;-73
2022/11/04 08:42:01;;;;;;;16.00;10.60;;;;;;;10.55;78.87;99447.65;125067;1313;98044;-74
2022/11/04 08:45:08;;;;;;;14.60;10.50;;;;;;;10.60;79.05;99441.49;125003;1297;99016;-73
2022/11/04 08:48:15;;;;;;;18.40;10.30;;;;;;;10.61;78.73;99441.80;125050;1295;98049;-72
2022/11/04 08:51:23;;;;;;;13.60;9.80;;;;;;;10.58;78.83;99440.01;124906;1309;98805;-73
2022/11/04 08:54:29;;;;;;;14.20;9.00;;;;;;;10.58;78.82;99438.69;124926;1312;98099;-73
2022/11/04 08:57:34;;;;;;;14.00;8.60;;;;;;;10.61;78.77;99440.70;125010;1295;99266;-73
2022/11/04 09:00:40;;;;;;;13.70;9.00;;;;;;;10.66;78.39;99442.00;125073;1292;99283;-72
2022/11/04 09:03:46;;;;;;;14.30;9.20;;;;;;;10.69;78.49;99435.91;125066;1312;99241;-72
2022/11/04 09:06:55;;;;;;;14.90;10.20;;;;;;;10.74;78.49;99437.13;124990;1303;98107;-72
2022/11/04 09:10:01;;;;;;;14.70;10.10;;;;;;;10.79;78.51;99437.83;125257;1296;98125;-72
2022/11/04 09:13:09;;;;;;;17.70;10.80;;;;;;;10.84;78.30;99436.75;124965;1297;99059;-73
2022/11/04 09:16:16;;;;;;;15.40;10.30;;;;;;;10.89;78.20;99433.81;124967;1305;98142;-72
2022/11/04 09:19:21;;;;;;;14.20;9.30;;;;;;;10.95;78.17;99428.86;124975;1297;98113;-72
2022/11/04 09:22:27;;;;;;;18.10;10.10;;;;;;;11.02;78.29;99427.03;124886;1297;99206;-72
2022/11/04 09:25:32;;;;;;;15.00;10.00;;;;;;;11.07;78.31;99423.58;124961;1306;99173;-72
2022/11/04 09:28:39;;;;;;;14.00;9.90;;;;;;;11.16;78.34;99423.98;124986;1313;98253;-73
2022/11/04 09:31:44;;;;;;;13.00;8.50;;;;;;;11.26;77.79;99409.83;124903;1306;98050;-72
2022/11/04 09:34:50;;;;;;;13.90;9.10;;;;;;;11.38;77.84;99402.05;124953;1297;98007;-72
2022/11/04 09:37:56;;;;;;;13.90;9.10;;;;;;;11.48;77.51;99399.79;124988;1305;98010;-72
2022/11/04 09:41:07;;;;;;;13.20;8.70;;;;;;;11.51;77.20;99394.22;124974;1306;98149;-71
2022/11/04 09:44:22;;;;;;;15.60;9.00;;;;;;;11.51;76.96;99394.86;124896;1299;98117;-72
2022/11/04 09:47:30;;;;;;;14.50;9.20;;;;;;;11.44;77.35;99394.71;125032;1296;98046;-71
2022/11/04 09:50:45;;;;;;;12.90;9.20;;;;;;;11.42;77.42;99398.21;124939;1305;98173;-72
2022/11/04 09:53:55;;;;;;;14.60;9.60;;;;;;;11.41;77.14;99401.16;124881;1299;98048;-72
2022/11/04 09:57:03;;;;;;;12.40;8.10;;;;;;;11.43;77.49;99389.69;124885;1303;99198;-71
2022/11/04 10:00:15;;;;;;;13.10;9.40;;;;;;;11.48;77.41;99393.55;125013;1305;98722;-72
2022/11/04 10:03:37;;;;;;;12.50;8.60;;;;;;;11.53;77.03;99384.23;124982;1302;98776;-71
2022/11/04 10:06:58;;;;;;;13.80;9.00;;;;;;;11.60;76.85;99372.95;124951;1302;99175;-72
2022/11/04 10:10:13;;;;;;;11.50;8.30;;;;;;;11.68;76.99;99378.71;124918;1307;98041;-72
2022/11/04 10:13:29;;;;;;;13.30;8.40;;;;;;;11.79;76.83;99378.13;124939;1296;98008;-72
2022/11/04 10:16:47;;;;;;;12.20;8.30;;;;;;;11.90;76.73;99372.96;124892;1306;99153;-72
2022/11/04 10:20:03;;;;;;;12.70;8.50;;;;;;;12.01;76.41;99373.27;124854;1305;98011;-72
2022/11/04 10:23:21;;;;;;;12.90;8.70;;;;;;;12.06;76.41;99374.90;124947;1299;99171;-72
2022/11/04 10:26:33;;;;;;;10.70;8.20;;;;;;;12.13;76.22;99371.66;124892;1298;99156;-72
2022/11/04 10:29:43;;;;;;;13.40;8.50;;;;;;;12.12;75.93;99367.65;125033;1299;99178;-72
2022/11/04 10:32:59;;;;;;;12.50;8.60;;;;;;;12.08;75.65;99367.56;124945;1296;98727;-71
2022/11/04 10:36:08;;;;;;;13.80;8.70;;;;;;;12.01;76.07;99376.48;124979;1313;99196;-72
2022/11/04 10:39:19;;;;;;;11.90;8.00;;;;;;;11.95;76.15;99375.73;125008;1300;98026;-71
2022/11/04 10:42:24;;;;;;;14.30;8.30;;;;;;;11.88;76.38;99371.44;124960;1305;98068;-72
2022/11/04 10:45:37;;;;;;;11.00;7.60;;;;;;;11.81;76.37;99371.30;124958;1305;99141;-71
2022/11/04 10:48:49;;;;;;;11.10;7.70;;;;;;;11.74;76.13;99366.23;125113;1317;98018;-72
2022/11/04 10:51:55;;;;;;;14.10;7.90;;;;;;;11.68;76.14;99367.15;124927;1296;98016;-72
2022/11/04 10:55:01;;;;;;;12.20;8.10;;;;;;;11.66;76.19;99367.95;124731;1309;98188;-72
2022/11/04 10:58:19;;;;;;;13.10;8.80;;;;;;;11.65;76.00;99367.15;124950;1306;98104;-73
2022/11/04 11:01:29;;;;;;;15.20;9.10;;;;;;;11.70;76.07;99368.01;125111;1306;99197;-74
2022/11/04 11:04:37;;;;;;;14.60;9.20;;;;;;;11.79;76.35;99366.87;125111;1306;98102;-74
2022/11/04 11:07:43;;;;;;;14.30;8.60;;;;;;;11.88;75.96;99366.58;125098;1299;98868;-73
2022/11/04 11:10:53;;;;;;;14.40;8.90;;;;;;;11.95;75.82;99365.36;125068;1305;98056;-74
2022/11/04 11:13:58;;;;;;;14.20;9.60;;;;;;;12.00;75.87;99361.25;125207;1297;99173;-73
2022/11/04 11:17:24;;;;;;;13.00;9.10;;;;;;;12.05;75.77;99359.79;124970;1303;99176;-73
2022/11/04 11:20:32;;;;;;;16.30;9.50;;;;;;;12.06;75.77;99353.01;125093;1305;99320;-73
2022/11/04 11:23:47;;;;;;;16.60;9.90;;;;;;;12.07;75.75;99350.80;125025;1317;98027;-72
2022/11/04 11:26:55;;;;;;;15.40;9.50;;;;;;;12.08;75.59;99347.74;125043;1299;98012;-71
2022/11/04 11:30:00;;;;;;;14.00;8.90;;;;;;;12.09;75.63;99341.09;125186;1295;98021;-72
2022/11/04 11:33:15;;;;;;;13.00;8.30;;;;;;;12.09;75.56;99332.29;124884;1302;99173;-74
2022/11/04 11:36:25;;;;;;;14.20;9.40;;;;;;;12.09;75.65;99328.05;125073;1299;98031;-72
2022/11/04 11:39:33;;;;;;;14.50;9.20;;;;;;;12.13;75.67;99323.82;125081;1306;98699;-73
2022/11/04 11:42:42;;;;;;;13.60;9.50;;;;;;;12.18;75.60;99322.33;125224;1302;99058;-73
2022/11/04 11:45:50;;;;;;;14.20;8.80;;;;;;;12.22;75.64;99321.50;125134;1302;99192;-73
2022/11/04 11:49:00;;;;;;;12.80;8.80;;;;;;;12.25;75.42;99323.30;125226;1302;98355;-72
2022/11/04 11:52:35;;;;;;;16.80;10.30;;;;;;;12.26;75.53;99326.10;125257;1295;98136;-73
2022/11/04 11:55:47;;;;;;;14.30;9.80;;;;;;;12.25;75.35;99321.86;124904;1307;98618;-73
2022/11/04 11:58:58;;;;;;;15.70;10.50;;;;;;;12.23;75.38;99325.83;125060;1295;98791;-72
2022/11/04 12:02:20;;;;;;;14.40;10.00;;;;;;;12.22;75.31;99323.88;124884;1297;99094;-73
2022/11/04 12:05:30;;;;;;;;;;;;;;;12.22;75.55;99320.34;124945;1312;99160;-74
2022/11/04 12:08:51;;;;;;;16.70;11.20;;;;;;;12.21;75.37;99319.91;124954;1305;98792;-72
2022/11/04 12:12:10;;;;;;;16.20;10.60;;;;;;;12.18;75.45;99318.23;124939;1299;98081;-74
2022/11/04 12:15:32;;;;;;;16.20;10.10;;;;;;;12.18;75.62;99311.52;124904;1295;99154;-73
2022/11/04 12:18:52;;;;;;;12.20;9.00;;;;;;;12.19;75.77;99313.98;124891;1309;99175;-73
2022/11/04 12:22:04;;;;;;;13.50;9.80;;;;;;;12.24;75.61;99300.75;125023;1312;98782;-73
2022/11/04 12:25:20;;;;;;;16.20;9.80;;;;;;;12.29;75.60;99302.45;124911;1305;98377;-72
2022/11/04 12:28:36;;;;;;;17.60;11.20;;;;;;;12.37;75.50;99301.32;124940;1305;98057;-73
2022/11/04 12:31:53;;;;;;;17.40;10.70;;;;;;;12.43;75.33;99295.23;124930;1297;98044;-73
2022/11/04 12:35:15;;;;;;;17.60;11.30;;;;;;;12.47;75.12;99295.49;124945;1305;98010;-73
2022/11/04 12:38:33;;;;;;;;;;;;;;;12.47;75.08;99296.23;124818;1310;99180;-73
2022/11/04 12:41:49;;;;;;;15.80;10.30;;;;;;;12.46;74.89;99297.38;124874;1306;99287;-73
2022/11/04 12:45:09;;;;;;;24.00;14.10;;;;;;;12.47;75.06;99299.94;124861;1295;98062;-72
2022/11/04 12:48:31;;;;;;;18.60;11.30;;;;;;;12.47;74.98;99295.41;124948;1312;98059;-72
2022/11/04 12:51:43;;;;;;;18.10;11.30;;;;;;;12.43;74.85;99296.45;124984;1306;98892;-72
2022/11/04 12:54:53;;;;;;;;;;;;;;;12.41;74.83;99300.95;124984;1299;98004;-73
2022/11/04 12:58:08;;;;;;;16.50;10.50;;;;;;;12.38;74.86;99306.39;124883;1296;98037;-73
2022/11/04 13:01:18;;;;;;;16.50;10.20;;;;;;;12.35;74.90;99303.01;124864;1306;98719;-72
2022/11/04 13:04:29;;;;;;;17.20;10.20;;;;;;;12.31;74.77;99302.73;124847;1306;99195;-72
2022/11/04 13:07:40;;;;;;;14.50;8.50;;;;;;;12.27;74.91;99303.62;124869;1305;99053;-72
2022/11/04 13:10:53;;;;;;;14.90;10.30;;;;;;;12.28;75.07;99306.84;124869;1305;98923;-72
2022/11/04 13:14:04;;;;;;;13.50;9.20;;;;;;;12.31;75.00;99309.92;124963;1300;99176;-72
2022/11/04 13:17:15;;;;;;;17.20;10.40;;;;;;;12.34;75.05;99310.66;124850;1305;98039;-75
2022/11/04 13:20:31;;;;;;;17.50;10.70;;;;;;;12.34;74.92;99310.00;124960;1291;99256;-72
2022/11/04 13:23:41;;;;;;;19.10;11.90;;;;;;;12.34;74.77;99311.15;124992;1299;98021;-72
2022/11/04 13:26:47;;;;;;;19.40;11.70;;;;;;;12.31;74.83;99313.10;124909;1319;98126;-72
2022/11/04 13:30:04;;;;;;;23.00;14.60;;;;;;;12.27;75.02;99309.67;125014;1295;98140;-73
2022/11/04 13:33:19;;;;;;;20.40;13.00;;;;;;;12.23;74.92;99307.69;124946;1306;98083;-72
2022/11/04 13:36:33;;;;;;;19.20;12.40;;;;;;;12.21;74.90;99304.08;125011;1307;99061;-72
2022/11/04 13:39:44;;;;;;;18.90;12.40;;;;;;;12.16;74.93;99297.57;124961;1297;98098;-73
2022/11/04 13:46:39;;;;;;;17.60;10.50;;;;;;;12.08;74.98;99295.40;125002;1306;98665;-72
2022/11/04 13:49:50;;;;;;;19.10;11.80;;;;;;;12.07;75.15;99290.90;125033;1300;98779;-71
2022/11/04 13:52:56;;;;;;;18.60;13.10;;;;;;;12.09;75.05;99290.68;124941;1305;99150;-72
2022/11/04 13:56:02;;;;;;;18.10;11.90;;;;;;;12.09;75.02;99293.89;124854;1295;99113;-72
2022/11/04 13:59:22;;;;;;;17.80;11.30;;;;;;;12.09;75.10;99289.75;125007;1299;98565;-72
2022/11/04 14:02:39;;;;;;;19.10;11.80;;;;;;;12.06;75.08;99285.79;124938;1292;98012;-74
2022/11/04 14:06:03;;;;;;;19.40;13.00;;;;;;;12.05;74.97;99283.68;124904;1300;98054;-72
2022/11/04 14:09:58;;;;;;;18.10;11.90;;;;;;;12.00;75.10;99285.98;124995;1307;99158;-72
2022/11/04 14:13:36;;;;;;;21.30;12.30;;;;;;;11.95;74.99;99282.52;124291;1312;99288;-72
2022/11/04 14:16:44;;;;;;;18.90;11.80;;;;;;;11.90;75.09;99284.59;124682;1302;99390;-72
2022/11/04 14:20:00;;;;;;;17.10;11.70;;;;;;;11.84;75.18;99293.59;125000;1296;99185;-72
2022/11/04 14:23:21;;;;;;;19.40;11.10;;;;;;;11.80;75.25;99292.13;125051;1295;99058;-72
2022/11/04 14:26:40;;;;;;;18.10;10.50;;;;;;;11.80;75.27;99297.48;124914;1295;99177;-72
2022/11/04 14:29:51;;;;;;;16.40;11.70;;;;;;;11.82;75.12;99299.63;125092;1306;98126;-72
2022/11/04 14:33:01;;;;;;;19.70;12.60;;;;;;;11.84;75.27;99296.91;125000;1305;99087;-73
2022/11/04 14:36:30;;;;;;;20.80;12.90;;;;;;;11.84;75.13;99298.08;124904;1299;99243;-71
2022/11/04 14:39:39;;;;;;;16.30;11.60;;;;;;;11.82;75.18;99293.35;124866;1305;98047;-72
2022/11/04 14:42:49;;;;;;;20.10;12.60;;;;;;;11.78;75.24;99295.10;124816;1305;161805;-72
2022/11/04 14:45:56;;;;;;;22.50;13.60;;;;;;;11.74;75.24;99301.75;125040;1299;98163;-72
2022/11/04 14:49:03;;;;;;;23.40;14.40;;;;;;;11.68;75.07;99301.18;125056;1305;98033;-72
2022/11/04 14:52:19;;;;;;;21.50;14.00;;;;;;;11.64;75.26;99301.06;124924;1299;98394;-73
2022/11/04 14:55:29;;;;;;;22.70;13.70;;;;;;;11.59;75.24;99304.48;124990;1296;99167;-75
2022/11/04 14:58:36;;;;;;;19.70;12.80;;;;;;;11.54;75.26;99302.51;125261;1297;98125;-74
2022/11/04 15:01:42;;;;;;;27.00;15.20;;;;;;;11.54;75.10;99306.11;125187;1296;99131;-74
2022/11/04 15:04:56;;;;;;;29.20;16.40;;;;;;;11.56;75.25;99307.29;125175;1296;98136;-73
2022/11/04 15:08:02;;;;;;;27.50;17.10;;;;;;;11.57;75.13;99305.40;125206;1296;98783;-73
2022/11/04 15:11:14;;;;;;;30.10;17.10;;;;;;;11.58;75.03;99307.39;125200;1297;99268;-74
2022/11/04 15:14:23;;;;;;;25.40;15.60;;;;;;;11.57;74.96;99304.52;125001;1295;98040;-74